Disclaimer

Please do not use the information listed here in-flight or in-navigation, as they are not provided to us by the airports but are provided by volunteers, so they might be outdated.

Search


Regions


Airport information page

Radio informations:
Tower (TWR) - 125.0 MHz
Automatic Terminal Information Service (ATIS) - 132.475 MHz
Approach (APP) - 125.85 MHz

Airport informations:
Latitude: 51° 23' 48.00" N
Longitude: 003° 20' 36.00" W
Elevation: 220 feet - 67 meters
Operating hours: 24 hour operations
Operating agency: Civil government, landing fees and diplomatic clearance may be required
Timezone: UTC 0(+1DT) - Last Sunday in March to last Sunday in October
Fuel: Jet A1, without icing nhibitor.

100/130 MIL Spec, low lead, aviation gasoline (BLUE)

Runway information:
12/30 - 7848 x 151 feet< - >2392 x 46 meters

Recent METARs:
EGFF 210150Z AUTO 05009KT 9999 BKN016 OVC043 03/02 Q1005
EGFF 210220Z AUTO 03009KT 9999 BKN019 03/02 Q1005
EGFF 210250Z AUTO 05007KT 9999 FEW028 OVC041 03/02 Q1005

Airport on the map: